createdAt,value
2018-09-26T00:00:46.697Z,20.42
2018-09-26T00:01:46.706Z,20.43
2018-09-26T00:02:46.674Z,20.42
2018-09-26T00:03:46.664Z,20.43
2018-09-26T00:04:46.665Z,20.47
2018-09-26T00:05:46.640Z,20.46
2018-09-26T00:06:46.651Z,20.46
2018-09-26T00:07:46.628Z,20.46
2018-09-26T00:08:46.609Z,20.43
2018-09-26T00:09:46.596Z,20.42
2018-09-26T00:10:46.593Z,20.35
2018-09-26T00:11:46.595Z,20.43
2018-09-26T00:12:46.562Z,20.41
2018-09-26T00:13:46.550Z,20.46
2018-09-26T00:14:46.538Z,20.42
2018-09-26T00:15:46.528Z,20.39
2018-09-26T00:16:46.553Z,20.46
2018-09-26T00:17:46.505Z,20.35
2018-09-26T00:18:46.497Z,20.39
2018-09-26T00:19:46.483Z,20.47
2018-09-26T00:20:46.472Z,20.43
2018-09-26T00:21:46.484Z,20.43
2018-09-26T00:22:46.460Z,20.46
2018-09-26T00:23:46.441Z,20.39
2018-09-26T00:24:46.426Z,20.35
2018-09-26T00:25:46.415Z,20.41
2018-09-26T00:26:46.426Z,20.41
2018-09-26T00:27:46.393Z,20.47
2018-09-26T00:28:46.403Z,20.43
2018-09-26T00:29:46.371Z,20.38
2018-09-26T00:30:46.359Z,20.46
2018-09-26T00:31:46.370Z,20.49
2018-09-26T00:32:46.338Z,20.43
2018-09-26T00:33:46.326Z,20.39
2018-09-26T00:34:46.323Z,20.46
2018-09-26T00:35:46.332Z,20.43
2018-09-26T00:36:46.313Z,20.47
2018-09-26T00:37:46.282Z,20.39
2018-09-26T00:38:46.271Z,20.38
2018-09-26T00:39:46.260Z,20.50
2018-09-26T00:40:46.270Z,20.43
2018-09-26T00:41:46.261Z,20.47
2018-09-26T00:42:46.227Z,20.41
2018-09-26T00:43:46.213Z,20.47
2018-09-26T00:44:46.202Z,20.43
2018-09-26T00:45:46.190Z,20.42
2018-09-26T00:46:46.217Z,20.47
2018-09-26T00:47:46.172Z,20.43
2018-09-26T00:48:46.158Z,20.47
2018-09-26T00:49:46.148Z,20.41
2018-09-26T00:50:46.135Z,20.39
2018-09-26T00:51:46.145Z,20.42
2018-09-26T00:52:46.127Z,20.43
2018-09-26T00:53:46.106Z,20.47
2018-09-26T00:54:46.091Z,20.41
2018-09-26T00:55:46.081Z,20.43
2018-09-26T00:56:46.089Z,20.43
2018-09-26T00:57:46.070Z,20.47
2018-09-26T00:58:46.057Z,20.47
2018-09-26T00:59:46.035Z,20.42
2018-09-26T01:00:46.027Z,20.42
2018-09-26T01:01:46.034Z,20.43
2018-09-26T01:02:46.021Z,20.39
2018-09-26T01:03:45.992Z,20.47
2018-09-26T01:04:45.994Z,20.42
2018-09-26T01:05:45.968Z,20.47
2018-09-26T01:06:45.958Z,20.42
2018-09-26T01:07:45.967Z,20.42
2018-09-26T01:08:45.931Z,20.47
2018-09-26T01:09:45.936Z,20.43
2018-09-26T01:10:45.918Z,20.42
2018-09-26T01:11:45.900Z,20.35
2018-09-26T01:12:45.912Z,20.41
2018-09-26T01:13:45.880Z,20.41
2018-09-26T01:14:45.864Z,20.47
2018-09-26T01:15:45.873Z,20.43
2018-09-26T01:16:45.841Z,20.47
2018-09-26T01:17:45.852Z,20.46
2018-09-26T01:18:45.819Z,20.53
2018-09-26T01:19:45.808Z,20.47
2018-09-26T01:20:45.797Z,20.43
2018-09-26T01:21:45.797Z,20.43
2018-09-26T01:22:45.798Z,20.53
2018-09-26T01:23:45.763Z,20.43
2018-09-26T01:24:45.751Z,20.47
2018-09-26T01:25:45.741Z,20.50
2018-09-26T01:26:45.729Z,20.47
2018-09-26T01:27:45.755Z,20.39
2018-09-26T01:28:45.707Z,20.47
2018-09-26T01:29:45.696Z,20.41
2018-09-26T01:30:45.684Z,20.47
2018-09-26T01:31:45.672Z,20.39
2018-09-26T01:32:45.683Z,20.43
2018-09-26T01:33:45.670Z,20.42
2018-09-26T01:34:45.640Z,20.39
2018-09-26T01:35:45.628Z,20.39
2018-09-26T01:36:45.617Z,20.47
2018-09-26T01:37:45.627Z,20.47
2018-09-26T01:38:45.594Z,20.38
2018-09-26T01:39:45.600Z,20.50
2018-09-26T01:40:45.572Z,20.43
2018-09-26T01:41:45.562Z,20.41
2018-09-26T01:42:45.572Z,20.41
2018-09-26T01:43:45.538Z,20.39
2018-09-26T01:44:45.535Z,20.50
2018-09-26T01:45:45.532Z,20.39
2018-09-26T01:46:45.504Z,20.43
2018-09-26T01:47:45.514Z,20.50
2018-09-26T01:48:45.483Z,20.47
2018-09-26T01:49:45.471Z,20.47
2018-09-26T01:50:45.460Z,20.47
2018-09-26T01:51:45.466Z,20.42
2018-09-26T01:52:45.458Z,20.43
2018-09-26T01:53:45.425Z,20.43
2018-09-26T01:54:45.415Z,20.43
2018-09-26T01:55:45.402Z,20.43
2018-09-26T01:56:45.392Z,20.43
2018-09-26T01:57:45.417Z,20.50
2018-09-26T01:58:45.369Z,20.47
2018-09-26T01:59:45.358Z,20.43
2018-09-26T02:00:45.347Z,20.43
2018-09-26T02:01:45.335Z,20.43
2018-09-26T02:02:45.345Z,20.43
2018-09-26T02:03:45.324Z,20.49
2018-09-26T02:04:45.302Z,20.43
2018-09-26T02:05:45.291Z,20.49
2018-09-26T02:06:45.279Z,20.47
2018-09-26T02:07:45.289Z,20.47
2018-09-26T02:08:45.256Z,20.43
2018-09-26T02:09:45.257Z,20.46
2018-09-26T02:10:45.238Z,20.43
2018-09-26T02:11:45.222Z,20.43
2018-09-26T02:12:45.232Z,20.41
2018-09-26T02:13:45.201Z,20.47
2018-09-26T02:14:45.189Z,20.43
2018-09-26T02:15:45.191Z,20.51
2018-09-26T02:16:45.166Z,20.43
2018-09-26T02:17:45.175Z,20.41
2018-09-26T02:18:45.144Z,20.43
2018-09-26T02:19:45.135Z,20.42
2018-09-26T02:20:45.123Z,20.39
2018-09-26T02:21:45.127Z,20.39
2018-09-26T02:22:45.121Z,20.47
2018-09-26T02:23:45.158Z,20.49
2018-09-26T02:24:45.075Z,20.49
2018-09-26T02:25:45.070Z,20.42
2018-09-26T02:26:45.053Z,20.46
2018-09-26T02:27:45.079Z,20.42
2018-09-26T02:28:45.030Z,20.39
2018-09-26T02:29:45.020Z,20.43
2018-09-26T02:30:45.010Z,20.46
2018-09-26T02:31:45.000Z,20.39
2018-09-26T02:32:45.006Z,20.43
2018-09-26T02:33:44.984Z,20.51
2018-09-26T02:34:44.964Z,20.39
2018-09-26T02:35:44.951Z,20.49
2018-09-26T02:36:44.941Z,20.41
2018-09-26T02:37:44.953Z,20.47
2018-09-26T02:38:44.917Z,20.47
2018-09-26T02:39:44.921Z,20.46
2018-09-26T02:40:44.895Z,20.49
2018-09-26T02:41:44.884Z,20.47
2018-09-26T02:42:44.895Z,20.43
2018-09-26T02:43:44.884Z,20.41
2018-09-26T02:44:44.851Z,20.42
2018-09-26T02:45:44.860Z,20.43
2018-09-26T02:46:44.828Z,20.54
2018-09-26T02:47:44.817Z,20.39
2018-09-26T02:48:44.826Z,20.43
2018-09-26T02:49:44.795Z,20.43
2018-09-26T02:50:44.782Z,20.35
2018-09-26T02:51:44.782Z,20.43
2018-09-26T02:52:44.760Z,20.49
2018-09-26T02:53:44.770Z,20.51
2018-09-26T02:54:44.737Z,20.39
2018-09-26T02:55:44.810Z,20.43
2018-09-26T02:56:44.715Z,20.42
2018-09-26T02:57:44.714Z,20.41
2018-09-26T02:58:44.713Z,20.43
2018-09-26T02:59:44.680Z,20.41
2018-09-26T03:00:44.670Z,20.41
2018-09-26T03:01:44.660Z,20.43
2018-09-26T03:02:44.647Z,20.41
2018-09-26T03:03:44.671Z,20.43
2018-09-26T03:04:44.625Z,20.42
2018-09-26T03:05:44.613Z,20.35
2018-09-26T03:06:44.602Z,20.49
2018-09-26T03:07:44.591Z,20.46
2018-09-26T03:08:44.602Z,20.46
2018-09-26T03:09:44.588Z,20.35
2018-09-26T03:10:44.588Z,20.43
2018-09-26T03:11:44.546Z,20.38
2018-09-26T03:12:44.535Z,20.43
2018-09-26T03:13:44.546Z,20.39
2018-09-26T03:14:44.511Z,20.41
2018-09-26T03:15:44.511Z,20.42
2018-09-26T03:16:44.493Z,20.35
2018-09-26T03:17:44.619Z,20.39
2018-09-26T03:18:44.488Z,20.47
2018-09-26T03:19:44.454Z,20.43
2018-09-26T03:20:44.446Z,20.35
2018-09-26T03:21:44.446Z,20.42
2018-09-26T03:22:44.422Z,20.43
2018-09-26T03:23:44.431Z,20.39
2018-09-26T03:24:44.420Z,20.41
2018-09-26T03:25:44.388Z,20.42
2018-09-26T03:26:44.377Z,20.42
2018-09-26T03:27:44.373Z,20.46
2018-09-26T03:28:44.374Z,20.42
2018-09-26T03:29:44.343Z,20.39
2018-09-26T03:30:44.333Z,20.46
2018-09-26T03:31:44.328Z,20.42
2018-09-26T03:32:44.310Z,20.38
2018-09-26T03:33:44.469Z,20.39
2018-09-26T03:34:44.301Z,20.41
2018-09-26T03:35:44.276Z,20.41
2018-09-26T03:36:44.264Z,20.42
2018-09-26T03:37:44.252Z,20.38
2018-09-26T03:38:44.303Z,20.38
2018-09-26T03:39:44.243Z,20.43
2018-09-26T03:40:44.228Z,20.38
2018-09-26T03:41:44.207Z,20.38
2018-09-26T03:42:44.195Z,20.47
2018-09-26T03:43:44.208Z,20.41
2018-09-26T03:44:44.175Z,20.39
2018-09-26T03:45:44.174Z,20.43
2018-09-26T03:46:44.151Z,20.38
2018-09-26T03:47:44.140Z,20.38
2018-09-26T03:48:44.150Z,20.35
2018-09-26T03:49:44.117Z,20.42
2018-09-26T03:50:44.112Z,20.35
2018-09-26T03:51:44.108Z,20.38
2018-09-26T03:52:44.084Z,20.43
2018-09-26T03:53:44.094Z,20.42
2018-09-26T03:54:44.062Z,20.35
2018-09-26T03:55:44.051Z,20.33
2018-09-26T03:56:44.038Z,20.41
2018-09-26T03:57:44.038Z,20.43
2018-09-26T03:58:44.038Z,20.41
2018-09-26T03:59:44.005Z,20.47
2018-09-26T04:00:43.994Z,20.41
2018-09-26T04:01:43.982Z,20.46
2018-09-26T04:02:43.971Z,20.35
2018-09-26T04:03:44.000Z,20.41
2018-09-26T04:04:43.957Z,20.41
2018-09-26T04:05:43.940Z,20.38
2018-09-26T04:06:43.928Z,20.41
2018-09-26T04:07:43.922Z,20.39
2018-09-26T04:08:43.926Z,20.41
2018-09-26T04:09:43.902Z,20.35
2018-09-26T04:10:43.886Z,20.47
2018-09-26T04:11:43.871Z,20.41
2018-09-26T04:12:44.050Z,20.39
2018-09-26T04:13:43.872Z,20.39
2018-09-26T04:14:43.837Z,20.46
2018-09-26T04:15:43.943Z,20.41
2018-09-26T04:16:43.822Z,20.42
2018-09-26T04:17:43.802Z,20.43
2018-09-26T04:18:43.813Z,20.41
2018-09-26T04:19:43.782Z,20.38
2018-09-26T04:20:43.775Z,20.47
2018-09-26T04:21:43.775Z,20.43
2018-09-26T04:22:43.753Z,20.43
2018-09-26T04:23:43.758Z,20.50
2018-09-26T04:24:43.747Z,20.46
2018-09-26T04:25:43.715Z,20.43
2018-09-26T04:26:43.888Z,20.51
2018-09-26T04:27:43.781Z,20.42
2018-09-26T04:28:43.682Z,20.47
2018-09-26T04:29:43.697Z,20.54
2018-09-26T04:30:43.658Z,20.50
2018-09-26T04:31:43.648Z,20.53
2018-09-26T04:32:43.761Z,20.50
2018-09-26T04:33:43.669Z,20.46
2018-09-26T04:34:43.635Z,20.51
2018-09-26T04:35:43.602Z,20.49
2018-09-26T04:36:43.592Z,20.43
2018-09-26T04:37:43.579Z,20.53
2018-09-26T04:38:43.680Z,20.53
2018-09-26T04:39:43.594Z,20.56
2018-09-26T04:40:43.546Z,20.50
2018-09-26T04:41:43.535Z,20.58
2018-09-26T04:42:43.524Z,20.56
2018-09-26T04:43:43.511Z,20.58
2018-09-26T04:44:43.524Z,20.56
2018-09-26T04:45:43.499Z,20.59
2018-09-26T04:46:43.477Z,20.54
2018-09-26T04:47:43.467Z,20.54
2018-09-26T04:48:43.457Z,20.58
2018-09-26T04:49:43.465Z,20.59
2018-09-26T04:50:43.489Z,20.59
2018-09-26T04:51:43.441Z,20.59
2018-09-26T04:52:43.419Z,20.59
2018-09-26T04:53:43.401Z,20.56
2018-09-26T04:54:43.410Z,20.56
2018-09-26T04:55:43.379Z,20.53
2018-09-26T04:56:43.366Z,20.58
2018-09-26T04:57:43.438Z,20.54
2018-09-26T04:58:43.343Z,20.49
2018-09-26T04:59:43.354Z,20.53
2018-09-26T05:00:43.324Z,20.56
2018-09-26T05:01:43.311Z,20.51
2018-09-26T05:02:43.300Z,20.59
2018-09-26T05:03:43.299Z,20.53
2018-09-26T05:04:43.300Z,20.51
2018-09-26T05:05:43.264Z,20.59
2018-09-26T05:06:43.255Z,20.62
2018-09-26T05:07:43.244Z,20.56
2018-09-26T05:08:43.235Z,20.54
2018-09-26T05:09:43.258Z,20.66
2018-09-26T05:10:43.210Z,20.56
2018-09-26T05:11:43.199Z,20.58
2018-09-26T05:12:43.188Z,20.56
2018-09-26T05:13:43.176Z,20.56
2018-09-26T05:14:43.247Z,20.62
2018-09-26T05:15:43.163Z,20.54
2018-09-26T05:16:43.146Z,20.51
2018-09-26T05:17:43.134Z,20.66
2018-09-26T05:18:43.120Z,20.65
2018-09-26T05:19:43.131Z,20.62
2018-09-26T05:20:43.099Z,20.42
2018-09-26T05:21:43.108Z,20.10
2018-09-26T05:22:43.081Z,19.46
2018-09-26T05:23:43.065Z,18.97
2018-09-26T05:24:43.078Z,18.36
2018-09-26T05:25:43.043Z,17.89
2018-09-26T05:26:43.034Z,17.48
2018-09-26T05:27:43.037Z,16.98
2018-09-26T05:28:43.031Z,16.74
2018-09-26T05:29:43.020Z,16.23
2018-09-26T05:30:42.986Z,15.81
2018-09-26T05:31:42.976Z,15.63
2018-09-26T05:32:42.963Z,15.41
2018-09-26T05:33:42.953Z,15.20
2018-09-26T05:34:43.033Z,14.93
2018-09-26T05:35:42.929Z,14.72
2018-09-26T05:36:42.932Z,14.67
2018-09-26T05:37:42.908Z,14.93
2018-09-26T05:38:42.945Z,15.17
2018-09-26T05:39:42.906Z,15.42
2018-09-26T05:40:42.901Z,15.78
2018-09-26T05:41:42.936Z,16.01
2018-09-26T05:42:42.850Z,16.35
2018-09-26T05:43:42.839Z,16.60
2018-09-26T05:44:42.848Z,16.90
2018-09-26T05:45:42.816Z,17.14
2018-09-26T05:46:42.805Z,17.33
2018-09-26T05:47:42.802Z,17.54
2018-09-26T05:48:42.784Z,17.79
2018-09-26T05:49:42.793Z,18.03
2018-09-26T05:50:42.764Z,18.15
2018-09-26T05:51:42.751Z,18.33
2018-09-26T05:52:42.737Z,18.54
2018-09-26T05:53:42.738Z,18.65
2018-09-26T05:54:42.736Z,18.83
2018-09-26T05:55:42.703Z,18.86
2018-09-26T05:56:42.712Z,19.06
2018-09-26T05:57:42.684Z,19.11
2018-09-26T05:58:42.672Z,19.20
2018-09-26T05:59:42.729Z,19.28
2018-09-26T06:00:42.648Z,19.32
2018-09-26T06:01:42.636Z,19.40
2018-09-26T06:02:42.627Z,19.50
2018-09-26T06:03:42.615Z,19.48
2018-09-26T06:04:42.625Z,19.58
2018-09-26T06:05:42.601Z,19.60
2018-09-26T06:06:42.582Z,19.73
2018-09-26T06:07:42.587Z,19.80
2018-09-26T06:08:42.557Z,19.90
2018-09-26T06:09:42.581Z,19.95
2018-09-26T06:10:42.534Z,20.03
2018-09-26T06:11:42.523Z,20.00
2018-09-26T06:12:42.578Z,20.09
2018-09-26T06:13:42.499Z,20.15
2018-09-26T06:14:42.488Z,20.16
2018-09-26T06:15:42.507Z,20.12
2018-09-26T06:16:42.470Z,20.08
2018-09-26T06:17:42.455Z,19.95
2018-09-26T06:18:42.449Z,19.80
2018-09-26T06:19:42.432Z,19.79
2018-09-26T06:20:42.442Z,19.83
2018-09-26T06:21:42.447Z,19.79
2018-09-26T06:22:42.401Z,19.79
2018-09-26T06:23:42.389Z,19.84
2018-09-26T06:24:42.429Z,19.90
2018-09-26T06:25:42.386Z,19.87
2018-09-26T06:26:42.371Z,20.03
2018-09-26T06:27:42.343Z,20.00
2018-09-26T06:28:42.331Z,20.06
2018-09-26T06:29:42.319Z,20.18
2018-09-26T06:30:42.388Z,20.15
2018-09-26T06:31:42.306Z,20.25
2018-09-26T06:32:42.289Z,20.21
2018-09-26T06:33:42.337Z,20.28
2018-09-26T06:34:42.276Z,20.34
2018-09-26T06:35:42.279Z,20.41
2018-09-26T06:36:42.254Z,20.38
2018-09-26T06:37:42.240Z,20.46
2018-09-26T06:38:42.218Z,20.53
2018-09-26T06:39:42.206Z,20.58
2018-09-26T06:40:42.222Z,20.58
2018-09-26T06:41:42.183Z,20.54
2018-09-26T06:42:42.177Z,20.68
2018-09-26T06:43:42.206Z,20.66
2018-09-26T06:44:42.153Z,20.64
2018-09-26T06:45:42.168Z,20.69
2018-09-26T06:46:42.134Z,20.72
2018-09-26T06:47:42.124Z,20.68
2018-09-26T06:48:42.110Z,20.72
2018-09-26T06:49:42.111Z,20.74
2018-09-26T06:50:42.104Z,20.83
2018-09-26T06:51:42.072Z,20.81
2018-09-26T06:52:42.070Z,20.87
2018-09-26T06:53:42.049Z,20.95
2018-09-26T06:54:42.037Z,20.87
2018-09-26T06:55:42.048Z,20.95
2018-09-26T06:56:42.026Z,20.93
2018-09-26T06:57:42.004Z,20.96
2018-09-26T06:58:41.993Z,20.98
2018-09-26T06:59:41.994Z,20.96
2018-09-26T07:00:41.992Z,21.01
2018-09-26T07:01:41.989Z,21.01
2018-09-26T07:02:41.969Z,20.96
2018-09-26T07:03:41.941Z,20.98
2018-09-26T07:04:41.924Z,20.95
2018-09-26T07:05:41.943Z,21.02
2018-09-26T07:06:41.903Z,21.06
2018-09-26T07:07:41.891Z,21.01
2018-09-26T07:08:41.884Z,21.08
2018-09-26T07:09:41.869Z,21.06
2018-09-26T07:10:41.910Z,21.06
2018-09-26T07:11:41.853Z,21.09
2018-09-26T07:12:41.836Z,21.09
2018-09-26T07:13:41.851Z,21.04
2018-09-26T07:14:41.830Z,21.16
2018-09-26T07:15:41.823Z,21.08
2018-09-26T07:16:41.799Z,21.01
2018-09-26T07:17:41.785Z,21.02
2018-09-26T07:18:41.769Z,21.09
2018-09-26T07:19:41.771Z,21.09
2018-09-26T07:20:41.767Z,21.09
2018-09-26T07:21:41.735Z,21.13
2018-09-26T07:22:41.728Z,21.14
2018-09-26T07:23:41.716Z,21.17
2018-09-26T07:24:41.714Z,21.13
2018-09-26T07:25:41.713Z,21.13
2018-09-26T07:26:41.686Z,21.17
2018-09-26T07:27:41.667Z,21.17
2018-09-26T07:28:41.656Z,21.14
2018-09-26T07:29:41.656Z,21.14
2018-09-26T07:30:41.654Z,21.16
2018-09-26T07:31:41.626Z,21.23
2018-09-26T07:32:41.621Z,21.21
2018-09-26T07:33:41.607Z,21.17
2018-09-26T07:34:41.593Z,21.13
2018-09-26T07:35:41.641Z,21.14
2018-09-26T07:36:41.573Z,21.14
2018-09-26T07:37:41.554Z,21.17
2018-09-26T07:38:41.548Z,21.21
2018-09-26T07:39:41.739Z,21.16
2018-09-26T07:40:41.545Z,21.24
2018-09-26T07:41:41.510Z,21.23
2018-09-26T07:42:41.509Z,21.27
2018-09-26T07:43:41.495Z,21.19
2018-09-26T07:44:41.476Z,21.26
2018-09-26T07:45:41.519Z,21.27
2018-09-26T07:46:41.453Z,21.24
2018-09-26T07:47:41.443Z,21.16
2018-09-26T07:48:41.558Z,21.27
2018-09-26T07:49:41.420Z,21.23
2018-09-26T07:50:41.441Z,21.29
2018-09-26T07:51:41.400Z,21.16
2018-09-26T07:52:41.413Z,21.20
2018-09-26T07:53:41.377Z,21.27
2018-09-26T07:54:41.370Z,21.24
2018-09-26T07:55:41.353Z,21.23
2018-09-26T07:56:41.381Z,21.23
2018-09-26T07:57:41.761Z,21.26
2018-09-26T07:58:41.321Z,21.24
2018-09-26T07:59:41.307Z,21.26
2018-09-26T08:00:41.299Z,21.30
2018-09-26T08:01:47.171Z,21.32
2018-09-26T08:02:41.274Z,21.29
2018-09-26T08:03:41.262Z,21.23
2018-09-26T08:04:41.255Z,21.24
2018-09-26T08:05:41.279Z,21.24
2018-09-26T08:06:41.249Z,21.26
2018-09-26T08:07:41.217Z,21.32
2018-09-26T08:08:41.216Z,21.32
2018-09-26T08:09:41.195Z,21.27
2018-09-26T08:10:41.182Z,21.35
2018-09-26T08:11:41.250Z,21.35
2018-09-26T08:12:41.160Z,21.24
2018-09-26T08:13:41.170Z,21.26
2018-09-26T08:14:41.140Z,21.38
2018-09-26T08:15:41.129Z,21.44
2018-09-26T08:16:41.136Z,21.36
2018-09-26T08:17:41.104Z,21.41
2018-09-26T08:18:41.185Z,21.36
2018-09-26T08:19:41.090Z,21.36
2018-09-26T08:20:41.071Z,21.29
2018-09-26T08:21:41.090Z,21.39
2018-09-26T08:22:41.048Z,21.44
2018-09-26T08:23:41.125Z,21.39
2018-09-26T08:24:41.031Z,21.44
2018-09-26T08:25:41.036Z,21.46
2018-09-26T08:26:41.151Z,21.46
2018-09-26T08:27:40.993Z,21.41
2018-09-26T08:28:40.986Z,21.39
2018-09-26T08:29:41.136Z,21.45
2018-09-26T08:30:40.959Z,21.41
2018-09-26T08:31:40.972Z,21.42
2018-09-26T08:32:40.941Z,21.42
2018-09-26T08:33:40.947Z,21.39
2018-09-26T08:34:40.916Z,21.38
2018-09-26T08:35:40.904Z,21.48
2018-09-26T08:36:40.993Z,21.42
2018-09-26T08:37:40.882Z,21.36
2018-09-26T08:38:40.869Z,21.13
2018-09-26T08:39:40.862Z,20.91
2018-09-26T08:40:40.846Z,20.69
2018-09-26T08:41:40.861Z,20.41
2018-09-26T08:42:40.878Z,20.12
2018-09-26T08:43:40.824Z,19.80
2018-09-26T08:44:40.803Z,19.50
2018-09-26T08:45:40.791Z,19.29
2018-09-26T08:46:40.826Z,18.97
2018-09-26T08:47:40.776Z,18.90
2018-09-26T08:48:40.757Z,18.77
2018-09-26T08:49:40.765Z,18.59
2018-09-26T08:50:40.902Z,18.54
2018-09-26T08:51:40.749Z,18.55
2018-09-26T08:52:40.749Z,18.61
2018-09-26T08:53:40.755Z,18.73
2018-09-26T08:54:40.690Z,18.90
2018-09-26T08:55:40.733Z,18.99
2018-09-26T08:56:40.690Z,19.13
2018-09-26T08:57:40.702Z,19.28
2018-09-26T08:58:40.645Z,19.35
2018-09-26T08:59:40.733Z,19.66
2018-09-26T09:00:40.742Z,19.69
2018-09-26T09:01:40.644Z,19.80
2018-09-26T09:02:40.602Z,19.95
2018-09-26T09:03:40.589Z,20.06
2018-09-26T09:04:40.594Z,20.12
2018-09-26T09:05:40.565Z,20.20
2018-09-26T09:06:40.583Z,20.25
2018-09-26T09:07:40.548Z,20.31
2018-09-26T09:08:40.531Z,20.39
2018-09-26T09:09:40.520Z,20.46
2018-09-26T09:10:40.538Z,20.56
2018-09-26T09:11:40.571Z,20.56
2018-09-26T09:12:40.494Z,20.66
2018-09-26T09:13:40.477Z,20.65
2018-09-26T09:14:40.624Z,20.69
2018-09-26T09:15:40.474Z,20.69
2018-09-26T09:16:40.463Z,20.81
2018-09-26T09:17:40.479Z,20.77
2018-09-26T09:18:40.736Z,20.89
2018-09-26T09:19:40.407Z,20.80
2018-09-26T09:20:40.405Z,20.91
2018-09-26T09:21:40.413Z,20.98
2018-09-26T09:22:40.397Z,20.99
2018-09-26T09:23:40.364Z,20.96
2018-09-26T09:24:40.356Z,21.05
2018-09-26T09:25:40.358Z,21.06
2018-09-26T09:26:40.365Z,21.13
2018-09-26T09:27:40.367Z,20.99
2018-09-26T09:28:40.316Z,21.05
2018-09-26T09:29:40.326Z,21.17
2018-09-26T09:30:40.288Z,21.06
2018-09-26T09:31:40.300Z,21.08
2018-09-26T09:32:40.283Z,21.01
2018-09-26T09:33:40.251Z,21.13
2018-09-26T09:34:40.244Z,21.16
2018-09-26T09:35:40.233Z,21.09
2018-09-26T09:36:40.229Z,21.11
2018-09-26T09:37:40.285Z,21.24
2018-09-26T09:38:40.207Z,21.21
2018-09-26T09:39:40.188Z,21.32
2018-09-26T09:40:40.196Z,21.27
2018-09-26T09:41:40.166Z,21.27
2018-09-26T09:42:40.174Z,21.21
2018-09-26T09:43:40.144Z,21.29
2018-09-26T09:44:40.137Z,21.32
2018-09-26T09:45:40.117Z,21.26
2018-09-26T09:46:40.108Z,21.36
2018-09-26T09:47:40.120Z,21.38
2018-09-26T09:48:40.085Z,21.44
2018-09-26T09:49:40.156Z,21.35
2018-09-26T09:50:40.075Z,21.36
2018-09-26T09:51:40.084Z,21.41
2018-09-26T09:52:40.065Z,21.38
2018-09-26T09:53:40.049Z,21.38
2018-09-26T09:54:40.021Z,21.45
2018-09-26T09:55:40.005Z,21.46
2018-09-26T09:56:40.036Z,21.45
2018-09-26T09:57:40.003Z,21.39
2018-09-26T09:58:39.973Z,21.45
2018-09-26T09:59:39.961Z,21.46
2018-09-26T10:00:39.950Z,21.44
2018-09-26T10:01:39.982Z,21.45
2018-09-26T10:02:40.026Z,21.45
2018-09-26T10:03:39.970Z,21.50
2018-09-26T10:04:39.906Z,21.48
2018-09-26T10:05:39.926Z,21.42
2018-09-26T10:06:39.894Z,21.19
2018-09-26T10:07:39.900Z,20.96
2018-09-26T10:08:39.918Z,20.64
2018-09-26T10:09:39.851Z,20.47
2018-09-26T10:10:39.885Z,20.23
2018-09-26T10:11:39.928Z,20.18
2018-09-26T10:12:39.837Z,19.91
2018-09-26T10:13:39.805Z,19.73
2018-09-26T10:14:39.835Z,19.60
2018-09-26T10:15:39.786Z,19.50
2018-09-26T10:16:39.772Z,19.43
2018-09-26T10:17:39.914Z,19.53
2018-09-26T10:18:39.748Z,19.54
2018-09-26T10:19:39.740Z,19.61
2018-09-26T10:20:39.729Z,19.68
2018-09-26T10:21:39.717Z,19.78
2018-09-26T10:22:39.727Z,19.87
2018-09-26T10:23:39.878Z,19.95
2018-09-26T11:55:26.107Z,17.22
2018-09-26T11:56:52.869Z,16.95
2018-09-26T11:57:52.852Z,17.04
2018-09-26T11:58:52.954Z,17.11
2018-09-26T11:59:52.832Z,17.32
2018-09-26T12:00:52.818Z,17.41
2018-09-26T12:01:52.813Z,17.33
2018-09-26T12:02:52.795Z,17.26
2018-09-26T12:03:52.832Z,17.13
2018-09-26T12:04:52.781Z,16.85
2018-09-26T12:05:52.762Z,16.93
2018-09-26T12:06:52.754Z,16.78
2018-09-26T12:07:52.844Z,16.70
2018-09-26T12:08:52.800Z,16.60
2018-09-26T12:09:52.735Z,16.63
2018-09-26T12:10:52.708Z,16.53
2018-09-26T12:11:52.714Z,16.41
2018-09-26T12:12:52.700Z,16.35
2018-09-26T12:13:52.727Z,16.33
2018-09-26T12:14:52.659Z,16.33
2018-09-26T12:15:52.656Z,16.26
2018-09-26T12:16:52.636Z,16.23
2018-09-26T12:17:52.625Z,16.25
2018-09-26T12:18:52.643Z,16.25
2018-09-26T12:19:52.601Z,16.20
2018-09-26T12:20:52.596Z,16.27
2018-09-26T12:21:52.613Z,16.25
2018-09-26T12:22:52.567Z,16.31
2018-09-26T12:23:52.583Z,16.26
2018-09-26T12:24:52.549Z,16.23
2018-09-26T12:25:52.538Z,16.34
2018-09-26T12:26:52.540Z,16.37
2018-09-26T12:27:52.592Z,16.52
2018-09-26T12:28:52.521Z,16.56
2018-09-26T12:29:52.489Z,16.52
2018-09-26T12:30:52.478Z,16.56
2018-09-26T12:31:52.573Z,16.52
2018-09-26T12:32:52.465Z,16.50
2018-09-26T12:33:52.466Z,16.53
2018-09-26T12:34:52.517Z,16.48
2018-09-26T12:35:52.418Z,16.65
2018-09-26T12:36:52.427Z,16.71
2018-09-26T12:37:52.395Z,16.67
2018-09-26T12:38:52.416Z,16.73
2018-09-26T12:39:52.382Z,16.67
2018-09-26T12:40:52.363Z,16.73
2018-09-26T12:41:52.350Z,16.68
2018-09-26T12:42:52.483Z,16.74
2018-09-26T12:43:52.350Z,16.71
2018-09-26T12:44:52.327Z,16.68
2018-09-26T12:45:52.309Z,16.71
2018-09-26T12:46:52.294Z,16.73
2018-09-26T12:47:52.335Z,16.80
2018-09-26T12:48:52.292Z,16.81
2018-09-26T12:49:52.382Z,16.81
2018-09-26T12:50:52.247Z,16.78
2018-09-26T12:51:52.242Z,16.85
2018-09-26T12:52:52.228Z,16.83
2018-09-26T12:53:52.349Z,16.77
2018-09-26T12:54:52.229Z,16.85
2018-09-26T12:55:52.191Z,16.78
2018-09-26T12:56:52.178Z,16.88
2018-09-26T12:57:52.166Z,16.78
2018-09-26T12:58:52.187Z,16.77
2018-09-26T12:59:52.148Z,16.78
2018-09-26T13:00:52.143Z,16.75
2018-09-26T13:01:52.121Z,16.75
2018-09-26T13:02:52.109Z,16.74
2018-09-26T13:03:52.120Z,16.78
2018-09-26T13:04:52.086Z,16.80
2018-09-26T13:05:52.080Z,16.78
2018-09-26T13:06:52.071Z,16.78
2018-09-26T13:07:52.052Z,16.73
2018-09-26T13:08:52.068Z,16.74
2018-09-26T13:09:52.028Z,16.88
2018-09-26T13:10:52.025Z,16.88
2018-09-26T13:11:52.005Z,16.98
2018-09-26T13:12:51.993Z,16.95
2018-09-26T13:13:52.005Z,16.95
2018-09-26T13:14:51.977Z,16.95
2018-09-26T13:15:51.962Z,16.90
2018-09-26T13:16:51.972Z,16.95
2018-09-26T13:17:51.935Z,16.93
2018-09-26T13:18:51.951Z,16.88
2018-09-26T13:19:51.917Z,17.00
2018-09-26T13:20:51.911Z,16.90
2018-09-26T13:21:51.898Z,16.98
2018-09-26T13:22:51.879Z,16.93
2018-09-26T13:23:51.955Z,16.92
2018-09-26T13:24:51.863Z,16.99
2018-09-26T13:25:51.876Z,17.07
2018-09-26T13:26:51.841Z,17.07
2018-09-26T13:27:51.832Z,17.06
2018-09-26T13:28:51.821Z,17.08
2018-09-26T13:29:51.833Z,17.17
2018-09-26T13:30:51.797Z,17.20
2018-09-26T13:31:51.780Z,17.18
2018-09-26T13:32:51.781Z,17.18
2018-09-26T13:33:51.762Z,17.26
2018-09-26T13:34:51.769Z,17.29
2018-09-26T13:35:51.742Z,17.26
2018-09-26T13:36:51.724Z,17.17
2018-09-26T13:37:51.721Z,17.29
2018-09-26T13:38:51.714Z,17.29
2018-09-26T13:39:51.715Z,17.26
2018-09-26T13:40:51.681Z,17.32
2018-09-26T13:41:51.668Z,17.30
2018-09-26T13:42:51.749Z,17.35
2018-09-26T13:43:51.654Z,17.35
2018-09-26T13:44:51.751Z,17.28
2018-09-26T13:45:51.750Z,17.33
2018-09-26T13:46:51.821Z,17.48
2018-09-26T13:47:51.601Z,17.46
2018-09-26T13:48:51.594Z,17.48
2018-09-26T13:49:51.604Z,17.35
2018-09-26T13:50:51.606Z,17.54
2018-09-26T13:51:51.570Z,17.41
2018-09-26T13:52:51.547Z,17.48
2018-09-26T13:53:51.598Z,17.62
2018-09-26T13:54:51.550Z,17.67
2018-09-26T13:55:51.511Z,17.69
2018-09-26T13:56:51.499Z,17.62
2018-09-26T13:57:51.493Z,17.69
2018-09-26T13:58:51.490Z,17.70
2018-09-26T13:59:51.489Z,17.73
2018-09-26T14:00:51.454Z,17.82
2018-09-26T14:01:51.442Z,17.85
2018-09-26T14:02:51.432Z,17.89
2018-09-26T14:03:51.419Z,17.91
2018-09-26T14:04:51.440Z,17.97
2018-09-26T14:05:51.405Z,17.88
2018-09-26T14:06:51.387Z,17.74
2018-09-26T14:07:51.373Z,17.85
2018-09-26T14:08:51.361Z,17.87
2018-09-26T14:09:51.372Z,17.92
2018-09-26T14:10:51.345Z,17.92
2018-09-26T14:11:51.329Z,17.92
2018-09-26T14:12:51.319Z,17.97
2018-09-26T14:13:51.306Z,17.85
2018-09-26T14:14:51.319Z,17.92
2018-09-26T14:15:51.283Z,17.91
2018-09-26T14:16:51.273Z,18.03
2018-09-26T14:17:51.260Z,17.99
2018-09-26T14:18:51.298Z,17.89
2018-09-26T14:19:51.273Z,17.91
2018-09-26T14:20:51.226Z,17.91
2018-09-26T14:21:51.219Z,17.91
2018-09-26T14:22:51.339Z,17.97
2018-09-26T14:23:51.190Z,17.94